»·PEaware :: N147AT KSAN-KCNO

N147AT :: KSAN-KCNO

FLIGHT INFORMATION

Flight Status: Arrived
Operator: Privately registered:
United States
More flights under this callsign
Pilot: Anonymous 18613 (18613)
Aircraft: CESSNA 172 SKYHAWK
(C172)
More flights by this aircraft type
Origin: KSAN San Diego Intl-Lindbergh
United States
Destination: KCNO Chino
United States
More flights between these airports :: More routes between these airports
Route: +OCN V23 DANAH V363 POXKU V8 PDZ
File this flight plan on PilotEdge
Remarks: SANP19
Altitude:
(Current/Filed)
6,000ft
Speed:
(Current/Filed)
120kts
Departed: 03-Oct-18 12:56 PM
Arrived: 03-Oct-18 01:57 PM
Distance/Time
Traveled:
78nm/1:00
Distance/Time
To Go:
Arrived

Flight Plot

Page will automatically refresh every two minutes.


Map Options




Map Legend


Flown Route
Filed Route
Departure Airport
Arrival Airport
Navaid (VOR, NDB)
Fix

Horizontal Profiles

Position Reports

Time Latitude Longitude Heading Altitude Ground
Speed
03-Oct-18 12:42 32.732420 -117.176641 194 21ft 0kts
03-Oct-18 12:43 32.732420 -117.176641 194 21ft 0kts
03-Oct-18 12:44 32.732420 -117.176641 194 21ft 0kts
03-Oct-18 12:45 32.732420 -117.176641 194 21ft 0kts
03-Oct-18 12:46 32.732420 -117.176641 194 21ft 0kts
03-Oct-18 12:47 32.732420 -117.176641 194 21ft 0kts
03-Oct-18 12:48 32.732420 -117.176641 194 21ft 0kts
03-Oct-18 12:49 32.732420 -117.176641 194 21ft 0kts
03-Oct-18 12:50 32.732420 -117.176641 194 21ft 0kts
03-Oct-18 12:51 32.732420 -117.176641 194 21ft 0kts
03-Oct-18 12:52 32.732160 -117.176554 156 21ft 7kts
03-Oct-18 12:53 32.730917 -117.175363 160 21ft 0kts
03-Oct-18 12:54 32.730917 -117.175363 160 21ft 0kts
03-Oct-18 12:55 32.730917 -117.175363 160 21ft 0kts
03-Oct-18 12:56 32.730917 -117.175363 160 21ft 0kts
03-Oct-18 12:57 32.730143 -117.175280 233 21ft 8kts
03-Oct-18 12:58 32.733394 -117.186489 285 185ft 78kts
03-Oct-18 12:59 32.748332 -117.205680 322 884ft 86kts
03-Oct-18 13:00 32.768337 -117.221164 321 1585ft 86kts
03-Oct-18 13:01 32.788655 -117.236480 324 2294ft 87kts
03-Oct-18 13:02 32.810002 -117.251562 322 2938ft 92kts
03-Oct-18 13:03 32.832460 -117.267429 320 3563ft 93kts
03-Oct-18 13:04 32.852908 -117.286148 313 4157ft 93kts
03-Oct-18 13:05 32.873770 -117.305132 318 4701ft 96kts
03-Oct-18 13:06 32.897583 -117.320146 336 5215ft 102kts
03-Oct-18 13:07 32.923932 -117.329558 337 5700ft 103kts
03-Oct-18 13:08 32.952779 -117.337643 343 6020ft 116kts
03-Oct-18 13:09 32.987388 -117.344773 340 5979ft 131kts
03-Oct-18 13:10 33.021798 -117.358716 334 5958ft 129kts
03-Oct-18 13:11 33.056282 -117.370286 342 5892ft 129kts
03-Oct-18 13:12 33.090856 -117.376095 346 5972ft 124kts
03-Oct-18 13:13 33.123696 -117.383341 340 5986ft 123kts
03-Oct-18 13:14 33.156198 -117.393920 344 6030ft 122kts
03-Oct-18 13:15 33.189135 -117.401286 336 6055ft 119kts
03-Oct-18 13:16 33.220749 -117.412288 337 6079ft 117kts
03-Oct-18 13:17 33.246749 -117.431626 307 6103ft 107kts
03-Oct-18 13:18 33.270113 -117.456653 313 6051ft 112kts
03-Oct-18 13:19 33.294208 -117.476990 321 6032ft 114kts
03-Oct-18 13:20 33.317562 -117.501892 307 6025ft 113kts
03-Oct-18 13:21 33.340847 -117.527850 315 6015ft 116kts
03-Oct-18 13:22 33.364531 -117.553812 314 6011ft 116kts
03-Oct-18 13:23 33.385585 -117.574055 314 5988ft 118kts
03-Oct-18 13:24 33.415201 -117.603659 310 5982ft 119kts
03-Oct-18 13:25 33.435068 -117.626520 317 5987ft 121kts
03-Oct-18 13:26 33.465710 -117.654481 310 5989ft 120kts
03-Oct-18 13:27 33.486105 -117.677325 311 5998ft 121kts
03-Oct-18 13:28 33.518073 -117.705310 342 5993ft 129kts
03-Oct-18 13:29 33.547003 -117.712944 340 6026ft 128kts
03-Oct-18 13:30 33.582214 -117.721104 345 6038ft 129kts
03-Oct-18 13:31 33.618284 -117.724472 352 6062ft 130kts
03-Oct-18 13:32 33.654040 -117.728237 359 6077ft 131kts
03-Oct-18 13:33 33.687754 -117.740577 337 6075ft 126kts
03-Oct-18 13:34 33.720806 -117.753715 329 6101ft 124kts
03-Oct-18 13:35 33.754612 -117.766096 339 6034ft 130kts
03-Oct-18 13:36 33.788804 -117.779922 331 5634ft 128kts
03-Oct-18 13:37 33.824758 -117.782978 352 5065ft 128kts
03-Oct-18 13:38 33.857994 -117.782357 0 4993ft 118kts
03-Oct-18 13:39 33.873215 -117.748082 74 5055ft 129kts
03-Oct-18 13:40 33.876860 -117.705108 78 5096ft 133kts
03-Oct-18 13:41 33.887109 -117.662364 71 5167ft 132kts
03-Oct-18 13:42 33.895496 -117.617531 75 5072ft 139kts
03-Oct-18 13:43 33.906363 -117.573253 61 5052ft 136kts
03-Oct-18 13:44 33.919423 -117.530714 67 5057ft 137kts
03-Oct-18 13:45 33.936971 -117.490294 70 4966ft 138kts
03-Oct-18 13:46 33.953833 -117.447556 59 4576ft 136kts
03-Oct-18 13:47 33.949930 -117.405157 104 4618ft 132kts
03-Oct-18 13:48 33.943860 -117.361854 124 4475ft 133kts
03-Oct-18 13:49 33.931786 -117.326861 55 4139ft 142kts
03-Oct-18 13:50 33.947784 -117.344367 263 3892ft 117kts
03-Oct-18 13:51 33.945468 -117.381857 273 3893ft 109kts
03-Oct-18 13:52 33.950747 -117.418144 279 3823ft 108kts
03-Oct-18 13:53 33.955168 -117.452915 276 3825ft 105kts
03-Oct-18 13:54 33.960638 -117.489706 274 3552ft 116kts
03-Oct-18 13:55 33.965442 -117.527939 280 2948ft 115kts
03-Oct-18 13:56 33.970987 -117.564032 277 2196ft 108kts
03-Oct-18 13:57 33.975457 -117.599814 279 1372ft 107kts
03-Oct-18 13:58 33.975849 -117.629605 270 705ft 77kts
03-Oct-18 13:59 33.976734 -117.636536 43 653ft 5kts
03-Oct-18 14:00 33.978231 -117.635523 311 653ft 4kts
03-Oct-18 14:01 33.977743 -117.636059 134 653ft 0kts
03-Oct-18 14:02 33.977744 -117.636059 134 653ft 0kts
03-Oct-18 14:03 33.977744 -117.636059 134 653ft 0kts
03-Oct-18 14:04 33.977744 -117.636059 134 653ft 0kts

Navigation Log

Ident Type
Flight plan parsing failed, navigation log unavailable